Time;durP1;ratioP1;P1;durP2;ratioP2;P2;SDS_P1;SDS_P2;PMS_P1;PMS_P2;Temp;Humidity;BMP_temperature;BMP_pressure;BME280_temperature;BME280_humidity;BME280_pressure;Samples;Min_cycle;Max_cycle;Signal;HPM_P1;HPM_P2
2021/11/03 00:01:35;;;;;;;34.45;19.57;;;;;;;9.40;76.60;99643.39;1724916;83;21211;-64
2021/11/03 00:04:02;;;;;;;37.30;20.72;;;;;;;9.39;76.77;99643.11;1724963;83;21402;-61
2021/11/03 00:06:28;;;;;;;36.85;22.00;;;;;;;9.39;76.87;99643.62;1694187;83;21023;-63
2021/11/03 00:08:58;;;;;;;34.05;21.00;;;;;;;9.39;76.97;99646.29;1724786;83;21074;-61
2021/11/03 00:11:25;;;;;;;34.67;19.90;;;;;;;9.39;77.10;99640.44;1725220;83;20928;-61
2021/11/03 00:13:52;;;;;;;34.35;21.75;;;;;;;9.40;77.11;99646.59;1724915;83;22319;-61
2021/11/03 00:16:18;;;;;;;35.52;21.02;;;;;;;9.39;77.17;99645.79;1722178;83;20908;-61
2021/11/03 00:18:45;;;;;;;33.90;21.07;;;;;;;9.39;77.19;99643.62;1724754;83;21524;-65
2021/11/03 00:21:12;;;;;;;36.75;20.40;;;;;;;9.40;77.30;99651.95;1724872;83;20947;-66
2021/11/03 00:23:39;;;;;;;31.57;20.17;;;;;;;9.41;77.36;99643.69;1724998;83;21454;-65
2021/11/03 00:26:05;;;;;;;33.95;21.15;;;;;;;9.43;77.34;99642.93;1724970;83;21213;-66
2021/11/03 00:28:31;;;;;;;35.00;20.55;;;;;;;9.47;77.34;99635.28;1725037;83;21470;-62
2021/11/03 00:31:00;;;;;;;30.62;20.00;;;;;;;9.52;77.23;99642.08;1724089;83;25905;-65
2021/11/03 00:33:29;;;;;;;36.77;20.97;;;;;;;9.57;77.16;99636.04;1724881;83;21489;-61
2021/11/03 00:35:55;;;;;;;36.42;21.20;;;;;;;9.60;77.16;99631.59;1720352;83;27537;-62
2021/11/03 00:38:22;;;;;;;39.40;22.60;;;;;;;9.64;77.07;99628.73;1722144;83;21151;-65
2021/11/03 00:40:50;;;;;;;38.33;23.73;;;;;;;9.68;76.94;99632.58;1724712;83;21513;-66
2021/11/03 00:43:17;;;;;;;40.20;23.67;;;;;;;9.70;76.79;99629.67;1725080;83;20947;-61
2021/11/03 00:45:45;;;;;;;40.67;23.25;;;;;;;9.72;76.69;99627.60;1724851;83;20967;-62
2021/11/03 00:48:13;;;;;;;42.62;24.27;;;;;;;9.73;76.69;99624.69;1725020;83;21049;-66
2021/11/03 00:50:40;;;;;;;37.65;23.70;;;;;;;9.76;76.64;99622.89;1724862;83;21135;-64
2021/11/03 00:53:08;;;;;;;38.08;22.98;;;;;;;9.77;76.53;99626.38;1724997;83;21011;-64
2021/11/03 00:55:35;;;;;;;35.40;22.10;;;;;;;9.78;76.50;99614.63;1725263;82;21547;-61
2021/11/03 00:58:02;;;;;;;36.30;21.30;;;;;;;9.80;76.51;99627.25;1725078;83;21691;-63
2021/11/03 01:00:28;;;;;;;39.92;23.10;;;;;;;9.78;76.55;99625.34;1724910;83;21030;-63
2021/11/03 01:02:55;;;;;;;39.42;23.50;;;;;;;9.81;76.55;99622.20;1725178;83;21111;-63
2021/11/03 01:05:24;;;;;;;40.75;23.95;;;;;;;9.81;76.54;99616.31;1724234;83;20998;-61
2021/11/03 01:07:50;;;;;;;39.15;24.35;;;;;;;9.82;76.56;99625.17;1725341;82;21514;-63
2021/11/03 01:10:17;;;;;;;38.50;23.70;;;;;;;9.81;76.57;99618.98;1723658;83;21541;-62
2021/11/03 01:12:44;;;;;;;47.17;26.27;;;;;;;9.80;76.63;99610.69;1719140;83;21012;-61
2021/11/03 01:15:13;;;;;;;66.45;34.70;;;;;;;9.77;76.77;99613.80;1715849;83;21932;-66
2021/11/03 01:17:39;;;;;;;67.30;35.33;;;;;;;9.76;76.84;99620.72;1715917;83;29051;-60
2021/11/03 01:20:07;;;;;;;64.20;35.28;;;;;;;9.74;76.96;99618.81;1715629;83;21494;-63
2021/11/03 01:22:34;;;;;;;69.07;36.48;;;;;;;9.72;77.12;99623.05;1716310;83;20992;-62
2021/11/03 01:25:01;;;;;;;60.20;33.80;;;;;;;9.71;77.26;99613.38;1715771;83;20948;-59
2021/11/03 01:27:27;;;;;;;58.35;30.68;;;;;;;9.70;77.30;99614.45;1715643;83;21142;-61
2021/11/03 01:29:54;;;;;;;52.20;30.52;;;;;;;9.67;77.37;99622.11;1715685;83;21451;-59
2021/11/03 01:32:20;;;;;;;46.85;28.32;;;;;;;9.62;77.63;99622.80;1715886;83;20959;-61
2021/11/03 01:34:47;;;;;;;49.40;28.80;;;;;;;9.64;77.72;99622.03;1715650;82;21038;-60
2021/11/03 01:37:14;;;;;;;48.50;29.18;;;;;;;9.64;77.82;99628.23;1715848;83;21003;-60
2021/11/03 01:39:41;;;;;;;48.10;28.02;;;;;;;9.69;77.89;99624.02;1715987;83;21787;-61
2021/11/03 01:42:07;;;;;;;45.48;27.52;;;;;;;9.72;77.85;99623.59;1715649;83;20959;-60
2021/11/03 01:44:34;;;;;;;44.35;26.68;;;;;;;9.74;77.85;99618.81;1715569;83;21465;-63
2021/11/03 01:47:46;;;;;;;42.27;26.27;;;;;;;9.77;77.77;99625.84;1715710;83;21070;-61
2021/11/03 01:50:27;;;;;;;53.25;27.25;;;;;;;9.79;77.78;99625.11;1713070;83;21016;-61
2021/11/03 01:53:12;;;;;;;44.03;25.97;;;;;;;9.81;77.72;99623.00;1715162;83;21938;-60
2021/11/03 01:55:49;;;;;;;46.13;27.93;;;;;;;9.84;77.66;99623.60;1714204;83;21540;-62
2021/11/03 01:58:20;;;;;;;49.35;28.42;;;;;;;9.80;77.70;99634.77;1715356;83;20979;-65
2021/11/03 02:00:46;;;;;;;51.68;29.02;;;;;;;9.80;77.75;99632.09;1714721;83;20979;-62
2021/11/03 02:03:18;;;;;;;51.45;28.40;;;;;;;9.80;77.73;99630.76;1689989;83;21060;-65
2021/11/03 02:05:48;;;;;;;45.63;28.87;;;;;;;9.80;77.80;99636.61;1706088;83;21151;-66
2021/11/03 02:08:15;;;;;;;48.83;29.75;;;;;;;9.80;77.84;99641.47;1716137;83;21018;-65
2021/11/03 02:10:42;;;;;;;54.93;30.50;;;;;;;9.76;77.97;99640.80;1715649;83;21279;-65
2021/11/03 02:13:11;;;;;;;52.27;30.57;;;;;;;9.72;78.14;99639.11;1720720;83;20998;-64
2021/11/03 02:15:39;;;;;;;54.08;30.97;;;;;;;9.71;78.40;99632.66;1711872;83;21914;-65
2021/11/03 02:18:06;;;;;;;53.73;30.33;;;;;;;9.68;78.59;99640.61;1716486;83;21505;-62
2021/11/03 02:20:33;;;;;;;70.25;34.88;;;;;;;9.68;78.80;99629.10;1716011;83;20952;-62
2021/11/03 02:23:45;;;;;;;62.65;34.88;;;;;;;9.71;78.93;99629.98;1715865;83;20974;-62
2021/11/03 02:26:25;;;;;;;68.72;36.25;;;;;;;9.74;78.95;99628.17;1715858;83;21426;-62
2021/11/03 02:28:53;;;;;;;74.15;39.50;;;;;;;9.71;78.95;99628.64;1715838;83;21004;-61
2021/11/03 02:31:42;;;;;;;83.55;41.83;;;;;;;9.69;79.29;99628.88;1716165;83;21844;-63
2021/11/03 02:34:13;;;;;;;74.95;38.60;;;;;;;9.70;79.35;99626.50;1708082;83;21066;-62
2021/11/03 02:36:59;;;;;;;64.75;31.55;;;;;;;9.68;79.50;99622.41;1715430;83;20936;-66
2021/11/03 02:39:38;;;;;;;50.08;29.23;;;;;;;9.64;79.57;99626.05;1713904;83;21513;-63
2021/11/03 02:42:05;;;;;;;55.15;28.87;;;;;;;9.61;79.74;99629.19;1715496;83;21063;-63
2021/11/03 02:44:34;;;;;;;47.60;26.97;;;;;;;9.58;79.83;99633.67;1691759;83;21166;-63
2021/11/03 02:47:02;;;;;;;;;;;;;;;9.58;79.99;99637.15;1718737;83;20940;-63
2021/11/03 02:49:29;;;;;;;56.65;29.25;;;;;;;9.61;80.00;99631.87;1716659;83;20112;-60
2021/11/03 02:51:56;;;;;;;52.58;30.88;;;;;;;9.63;80.05;99637.29;1716227;83;21494;-60
2021/11/03 02:54:22;;;;;;;50.98;31.50;;;;;;;9.67;80.04;99642.18;1691626;83;21038;-60
2021/11/03 02:56:57;;;;;;;56.68;31.97;;;;;;;9.71;80.04;99640.69;1716112;83;21800;-64
2021/11/03 02:59:27;;;;;;;51.90;30.37;;;;;;;9.76;79.98;99638.11;1715714;83;20845;-63
2021/11/03 03:01:57;;;;;;;53.58;30.62;;;;;;;9.82;79.84;99642.03;1716066;83;20963;-63
2021/11/03 03:04:33;;;;;;;50.10;29.10;;;;;;;9.87;79.69;99639.20;1716144;83;22031;-63
2021/11/03 03:07:02;;;;;;;48.60;28.25;;;;;;;9.89;79.50;99639.77;1715476;83;20921;-66
2021/11/03 03:09:29;;;;;;;46.53;27.52;;;;;;;9.86;79.40;99637.56;1715874;83;21771;-65
2021/11/03 03:12:01;;;;;;;41.28;25.35;;;;;;;9.81;79.31;99632.37;1716074;83;20955;-65
2021/11/03 03:14:33;;;;;;;42.15;27.52;;;;;;;9.72;79.40;99632.42;1715988;83;21525;-66
2021/11/03 03:17:00;;;;;;;48.33;28.07;;;;;;;9.62;79.69;99638.86;1711010;83;21553;-62
2021/11/03 03:19:27;;;;;;;47.93;28.70;;;;;;;9.56;79.95;99645.13;1716252;83;21045;-60
2021/11/03 03:21:54;;;;;;;47.58;27.95;;;;;;;9.57;80.14;99646.24;1716087;83;21821;-62
2021/11/03 03:24:21;;;;;;;48.25;28.95;;;;;;;9.63;80.21;99648.00;1715966;83;21619;-62
2021/11/03 03:26:48;;;;;;;56.77;35.38;;;;;;;9.70;80.08;99651.09;1716047;83;21488;-61
2021/11/03 03:29:15;;;;;;;62.35;37.38;;;;;;;9.72;80.13;99651.69;1716023;83;20931;-64
2021/11/03 03:31:43;;;;;;;52.70;31.48;;;;;;;9.76;80.07;99659.03;1713382;83;21038;-63
2021/11/03 03:34:14;;;;;;;51.48;31.48;;;;;;;9.77;79.89;99650.47;1714616;83;21131;-64
2021/11/03 03:36:41;;;;;;;60.28;37.10;;;;;;;9.76;79.99;99648.82;1715971;83;20955;-60
2021/11/03 03:39:09;;;;;;;65.03;37.08;;;;;;;9.76;80.08;99649.66;1715883;83;21082;-62
2021/11/03 03:41:37;;;;;;;64.05;37.67;;;;;;;9.77;80.09;99652.61;1716234;83;21101;-63
2021/11/03 03:44:05;;;;;;;56.95;33.45;;;;;;;9.80;80.12;99650.00;1716063;83;21050;-61
2021/11/03 03:46:32;;;;;;;58.33;31.62;;;;;;;9.83;80.16;99652.21;1713299;83;21119;-62
2021/11/03 03:48:59;;;;;;;58.05;32.38;;;;;;;9.85;80.02;99652.81;1716124;83;21521;-66
2021/11/03 03:51:25;;;;;;;47.20;27.10;;;;;;;9.85;80.03;99648.80;1713218;83;20974;-66
2021/11/03 03:53:52;;;;;;;43.45;26.80;;;;;;;9.85;80.02;99646.62;1715558;83;20960;-66
2021/11/03 03:56:22;;;;;;;45.65;27.00;;;;;;;9.87;80.02;99651.25;1715963;83;21442;-65
2021/11/03 03:58:50;;;;;;;51.05;29.37;;;;;;;9.88;80.01;99650.17;1716048;83;21149;-66
2021/11/03 04:01:19;;;;;;;45.52;28.67;;;;;;;9.88;80.08;99642.98;1715926;83;20971;-64
2021/11/03 04:03:47;;;;;;;42.75;25.70;;;;;;;9.90;80.07;99648.91;1716278;83;21034;-63
2021/11/03 04:06:14;;;;;;;41.30;25.50;;;;;;;9.93;80.02;99640.41;1715898;83;20998;-62
2021/11/03 04:08:41;;;;;;;43.92;25.65;;;;;;;9.94;79.94;99647.94;1716373;83;21320;-65
2021/11/03 04:11:09;;;;;;;40.33;25.55;;;;;;;9.95;79.87;99642.86;1716171;83;21149;-63
2021/11/03 04:13:39;;;;;;;39.48;22.50;;;;;;;9.93;79.93;99634.25;1717133;83;20983;-61
2021/11/03 04:16:07;;;;;;;39.27;23.12;;;;;;;9.91;79.95;99643.02;1722001;83;20927;-65
2021/11/03 04:18:34;;;;;;;39.05;22.42;;;;;;;9.89;80.14;99649.95;1724914;83;21016;-64
2021/11/03 04:21:01;;;;;;;34.65;21.60;;;;;;;9.84;80.27;99653.86;1724983;83;21370;-60
2021/11/03 04:23:28;;;;;;;36.60;21.68;;;;;;;9.81;80.42;99648.97;1724681;83;21988;-63
2021/11/03 04:25:56;;;;;;;33.70;20.62;;;;;;;9.79;80.57;99648.36;1724808;83;21094;-64
2021/11/03 04:28:23;;;;;;;46.42;25.02;;;;;;;9.75;80.70;99644.53;1706591;83;21508;-60
2021/11/03 04:30:50;;;;;;;39.10;22.62;;;;;;;9.75;80.89;99635.17;1723972;83;21609;-61
2021/11/03 04:33:19;;;;;;;47.00;25.70;;;;;;;9.76;81.02;99650.16;1724934;83;21355;-64
2021/11/03 04:35:47;;;;;;;48.08;25.43;;;;;;;9.78;81.08;99654.78;1724837;83;21168;-62
2021/11/03 04:38:15;;;;;;;40.10;22.65;;;;;;;9.81;81.14;99655.12;1725048;83;24599;-63
2021/11/03 04:40:42;;;;;;;41.95;24.77;;;;;;;9.81;81.18;99640.40;1725171;83;20940;-61
2021/11/03 04:43:09;;;;;;;47.30;24.90;;;;;;;9.80;81.31;99638.79;1724835;83;20908;-62
2021/11/03 04:45:36;;;;;;;48.08;27.15;;;;;;;9.79;81.49;99637.15;1725169;83;20986;-64
2021/11/03 04:48:04;;;;;;;50.73;29.12;;;;;;;9.80;81.63;99637.45;1725076;83;21120;-61
2021/11/03 04:50:32;;;;;;;51.13;28.47;;;;;;;9.81;81.72;99638.25;1724888;83;20951;-62
2021/11/03 04:52:59;;;;;;;54.55;30.92;;;;;;;9.81;81.79;99640.94;1693880;83;20959;-64
2021/11/03 04:55:25;;;;;;;61.28;32.67;;;;;;;9.81;81.91;99648.97;1725149;83;20986;-61
2021/11/03 04:57:53;;;;;;;58.60;32.85;;;;;;;9.81;82.02;99651.11;1724979;83;21520;-62
2021/11/03 05:00:25;;;;;;;53.23;27.87;;;;;;;9.82;82.03;99649.27;1725147;83;21785;-62
2021/11/03 05:02:53;;;;;;;53.73;28.83;;;;;;;9.83;82.11;99652.21;1724667;83;21082;-64
2021/11/03 05:05:20;;;;;;;55.63;29.25;;;;;;;9.87;82.11;99660.08;1724901;83;21499;-63
2021/11/03 05:07:48;;;;;;;52.62;29.70;;;;;;;9.88;82.06;99654.19;1725192;83;21589;-63
2021/11/03 05:10:16;;;;;;;47.23;28.73;;;;;;;9.89;82.07;99670.02;1725184;83;20982;-62
2021/11/03 05:12:43;;;;;;;44.63;26.93;;;;;;;9.91;82.04;99675.98;1724213;83;21229;-63
2021/11/03 05:15:10;;;;;;;47.20;28.20;;;;;;;9.92;82.00;99675.45;1711043;83;21006;-62
2021/11/03 05:17:37;;;;;;;49.73;28.10;;;;;;;9.90;81.99;99677.02;1715583;83;21031;-63
2021/11/03 05:20:05;;;;;;;50.55;27.90;;;;;;;9.90;82.05;99682.38;1712591;83;21970;-62
2021/11/03 05:22:33;;;;;;;43.85;26.05;;;;;;;9.91;82.11;99692.55;1691578;83;20980;-61
2021/11/03 05:25:00;;;;;;;45.43;26.48;;;;;;;9.93;82.14;99683.78;1715548;83;21074;-63
2021/11/03 05:27:26;;;;;;;48.33;28.10;;;;;;;9.95;82.07;99682.52;1712303;83;21559;-63
2021/11/03 05:29:53;;;;;;;51.65;28.15;;;;;;;9.96;82.07;99688.67;1715540;83;21553;-63
2021/11/03 05:32:20;;;;;;;43.73;26.15;;;;;;;9.97;82.02;99697.81;1712572;83;21546;-66
2021/11/03 05:34:46;;;;;;;47.40;27.50;;;;;;;9.97;82.05;99692.46;1715416;83;21039;-63
2021/11/03 05:37:15;;;;;;;51.53;29.92;;;;;;;9.96;82.10;99698.05;1712677;83;21509;-62
2021/11/03 05:39:43;;;;;;;47.70;28.15;;;;;;;9.97;82.16;99703.70;1712995;83;21585;-61
2021/11/03 05:42:10;;;;;;;49.75;28.30;;;;;;;9.99;82.19;99700.27;1715665;83;21505;-62
2021/11/03 05:44:37;;;;;;;48.90;29.07;;;;;;;10.02;82.18;99707.03;1712559;83;20979;-62
2021/11/03 05:47:04;;;;;;;57.90;32.95;;;;;;;10.04;82.18;99703.58;1714719;83;21513;-62
2021/11/03 05:49:33;;;;;;;59.30;32.83;;;;;;;10.06;82.21;99710.87;1715703;83;21154;-63
2021/11/03 05:52:01;;;;;;;59.07;33.37;;;;;;;10.08;82.29;99711.45;1715969;83;20967;-63
2021/11/03 05:54:28;;;;;;;52.48;31.55;;;;;;;10.11;82.23;99717.16;1715661;83;28834;-65
2021/11/03 05:56:59;;;;;;;50.17;30.92;;;;;;;10.17;82.15;99718.09;1716186;83;21544;-62
2021/11/03 05:59:25;;;;;;;52.17;31.05;;;;;;;10.20;82.04;99727.54;1715944;83;21043;-62
2021/11/03 06:01:52;;;;;;;42.45;27.60;;;;;;;10.21;81.97;99729.18;1715814;83;21934;-63
2021/11/03 06:04:18;;;;;;;45.80;27.93;;;;;;;10.22;81.95;99724.09;1712373;83;21059;-63
2021/11/03 06:06:45;;;;;;;51.85;28.55;;;;;;;10.22;81.87;99732.13;1715893;83;21084;-63
2021/11/03 06:09:11;;;;;;;48.75;28.32;;;;;;;10.23;81.87;99732.44;1715557;83;20968;-62
2021/11/03 06:11:41;;;;;;;42.58;27.30;;;;;;;10.21;81.84;99731.33;1716045;83;20967;-62
2021/11/03 06:14:09;;;;;;;43.13;26.52;;;;;;;10.20;81.88;99737.72;1714461;83;21834;-62
2021/11/03 06:16:37;;;;;;;45.23;28.85;;;;;;;10.21;81.94;99739.89;1715578;83;21601;-62
2021/11/03 06:19:04;;;;;;;49.23;29.42;;;;;;;10.22;81.94;99739.66;1715547;83;21111;-63
2021/11/03 06:21:32;;;;;;;54.30;29.35;;;;;;;10.22;81.92;99743.68;1715528;83;21042;-61
2021/11/03 06:24:00;;;;;;;44.58;27.82;;;;;;;10.21;81.94;99746.06;1716014;83;20983;-63
2021/11/03 06:26:26;;;;;;;48.83;29.60;;;;;;;10.22;82.02;99746.86;1715816;83;21264;-59
2021/11/03 06:28:53;;;;;;;51.68;29.18;;;;;;;10.23;82.03;99747.16;1715671;83;20861;-58
2021/11/03 06:31:20;;;;;;;50.60;29.60;;;;;;;10.22;82.00;99745.52;1715475;83;21612;-59
2021/11/03 06:33:47;;;;;;;46.80;29.80;;;;;;;10.21;82.07;99751.95;1715600;83;21022;-59
2021/11/03 06:36:14;;;;;;;54.45;30.32;;;;;;;10.23;82.19;99752.52;1715717;83;21399;-59
2021/11/03 06:38:40;;;;;;;58.23;31.85;;;;;;;10.30;82.37;99750.55;1713182;83;21107;-62
2021/11/03 06:41:09;;;;;;;56.95;34.45;;;;;;;10.41;82.04;99748.95;1715413;83;20939;-62
2021/11/03 06:43:38;;;;;;;62.08;33.50;;;;;;;10.46;81.75;99755.25;1715090;83;21541;-60
2021/11/03 06:46:05;;;;;;;59.08;33.45;;;;;;;10.48;81.64;99758.54;1714669;83;21584;-63
2021/11/03 06:48:32;;;;;;;79.03;42.25;;;;;;;10.50;81.51;99759.64;1714527;83;20992;-62
2021/11/03 06:50:59;;;;;;;62.20;35.03;;;;;;;10.50;81.54;99760.45;1715381;83;21151;-61
2021/11/03 06:53:26;;;;;;;62.38;36.60;;;;;;;10.50;81.49;99767.15;1715450;83;21070;-63
2021/11/03 06:55:54;;;;;;;77.72;43.85;;;;;;;10.51;81.49;99768.79;1715780;83;20952;-62
2021/11/03 06:58:21;;;;;;;66.57;38.83;;;;;;;10.51;81.53;99770.13;1715681;83;20920;-60
2021/11/03 07:00:49;;;;;;;61.53;35.20;;;;;;;10.51;81.66;99775.99;1715240;83;20999;-66
2021/11/03 07:03:17;;;;;;;63.50;37.48;;;;;;;10.54;81.71;99778.74;1715825;83;21134;-67
2021/11/03 07:05:45;;;;;;;70.52;43.00;;;;;;;10.52;81.74;99771.74;1715933;83;21079;-69
2021/11/03 07:08:13;;;;;;;86.30;50.90;;;;;;;10.54;82.01;99775.56;1715761;83;20928;-69
2021/11/03 07:10:44;;;;;;;83.55;41.35;;;;;;;10.56;82.05;99767.28;1715557;83;21115;-68
2021/11/03 07:13:11;;;;;;;70.92;40.12;;;;;;;10.56;82.33;99776.67;1715351;83;21028;-69
2021/11/03 07:15:38;;;;;;;68.55;37.20;;;;;;;10.65;82.69;99779.28;1723629;83;22367;-68
2021/11/03 07:18:05;;;;;;;63.90;37.42;;;;;;;10.73;82.32;99768.19;1724926;83;21054;-68
2021/11/03 07:20:32;;;;;;;65.35;36.28;;;;;;;10.78;82.17;99771.00;1724751;83;20999;-69
2021/11/03 07:22:59;;;;;;;68.37;36.85;;;;;;;10.77;82.04;99776.06;1724837;83;21019;-67
2021/11/03 07:25:25;;;;;;;59.53;36.48;;;;;;;10.75;81.92;99775.49;1724831;83;20980;-68
2021/11/03 07:27:54;;;;;;;77.55;46.00;;;;;;;10.75;82.06;99781.36;1724381;83;21138;-66
2021/11/03 07:30:24;;;;;;;70.72;41.02;;;;;;;10.73;81.96;99787.49;1725236;83;21002;-70
2021/11/03 07:32:50;;;;;;;69.72;41.77;;;;;;;10.70;82.11;99784.75;1724928;83;21560;-69
2021/11/03 07:35:17;;;;;;;92.22;50.88;;;;;;;10.69;82.14;99793.86;1725104;83;21055;-70
2021/11/03 07:37:44;;;;;;;76.22;45.48;;;;;;;10.67;82.23;99791.41;1724683;83;21059;-70
2021/11/03 07:40:15;;;;;;;88.07;49.75;;;;;;;10.65;82.23;99784.11;1725140;83;21119;-69
2021/11/03 07:42:42;;;;;;;90.50;50.85;;;;;;;10.66;82.35;99787.09;1724233;83;21014;-69
2021/11/03 07:45:09;;;;;;;62.40;36.70;;;;;;;10.68;82.52;99790.88;1724668;82;21007;-68
2021/11/03 07:47:36;;;;;;;54.35;33.78;;;;;;;10.68;82.35;99794.90;1720761;82;20995;-69
2021/11/03 07:50:05;;;;;;;57.15;35.03;;;;;;;10.66;82.37;99798.34;1725096;83;21015;-67
2021/11/03 07:52:31;;;;;;;48.73;30.25;;;;;;;10.63;82.60;99796.94;1725190;83;21130;-68
2021/11/03 07:54:58;;;;;;;61.60;38.45;;;;;;;10.62;82.73;99795.83;1724994;83;21504;-67
2021/11/03 07:57:24;;;;;;;61.65;37.85;;;;;;;10.62;82.70;99797.98;1724779;83;21022;-68
2021/11/03 07:59:53;;;;;;;68.52;41.75;;;;;;;10.62;82.93;99799.85;1724644;83;21059;-69
2021/11/03 08:05:52;;;;;;;108.40;59.18;;;;;;;10.65;83.25;99796.17;1723819;83;21643;-66
2021/11/03 08:12:26;;;;;;;71.90;41.02;;;;;;;10.75;83.37;99798.28;1724685;83;21545;-67
2021/11/03 08:18:12;;;;;;;56.20;32.93;;;;;;;10.84;83.25;99800.90;1720912;83;21042;-69
2021/11/03 08:24:10;;;;;;;64.60;36.85;;;;;;;10.89;83.26;99798.85;1722748;83;21489;-68
2021/11/03 08:30:10;;;;;;;58.63;33.75;;;;;;;10.99;83.16;99795.05;1727192;83;21018;-69
2021/11/03 08:36:04;;;;;;;54.18;31.50;;;;;;;11.09;82.75;99807.88;1717439;83;20228;-69
2021/11/03 08:42:02;;;;;;;58.87;33.38;;;;;;;11.09;82.48;99813.25;1717359;83;21046;-69
2021/11/03 08:47:59;;;;;;;54.50;34.60;;;;;;;11.09;82.57;99818.62;1714261;83;21015;-68
2021/11/03 08:53:56;;;;;;;45.20;26.23;;;;;;;11.02;82.54;99822.74;1714349;83;20947;-68
2021/11/03 08:59:55;;;;;;;51.33;31.48;;;;;;;11.05;82.78;99828.98;1714707;83;20974;-67
2021/11/03 09:05:52;;;;;;;65.75;37.20;;;;;;;11.13;82.68;99821.13;1717550;83;21521;-69
2021/11/03 09:12:14;;;;;;;65.45;35.60;;;;;;;11.19;82.53;99822.86;1716087;83;21003;-69
2021/11/03 09:17:58;;;;;;;72.78;38.78;;;;;;;11.27;82.39;99829.73;1717505;82;21050;-67
2021/11/03 09:23:55;;;;;;;61.68;34.03;;;;;;;11.26;82.38;99831.30;1717732;82;21489;-69
2021/11/03 09:29:52;;;;;;;68.37;40.20;;;;;;;11.28;82.35;99838.58;1720695;83;21560;-69
2021/11/03 09:35:51;;;;;;;71.85;38.78;;;;;;;11.29;82.39;99838.88;1724255;83;20947;-66
2021/11/03 09:41:50;;;;;;;62.30;36.95;;;;;;;11.30;82.42;99843.20;1703275;84;20225;-67
2021/11/03 09:48:05;;;;;;;48.92;29.80;;;;;;;11.31;82.40;99844.84;1693555;83;21319;-67
2021/11/03 09:54:05;;;;;;;50.78;28.20;;;;;;;11.29;82.43;99846.93;1709396;83;21001;-68
2021/11/03 10:00:27;;;;;;;35.90;21.45;;;;;;;11.20;82.51;99845.97;1715830;83;21085;-69
2021/11/03 10:06:58;;;;;;;44.13;25.12;;;;;;;11.16;82.77;99858.21;1715890;83;21396;-66
2021/11/03 10:13:26;;;;;;;36.15;21.00;;;;;;;11.15;82.92;99855.23;1714426;83;20960;-67
2021/11/03 10:19:33;;;;;;;30.62;18.07;;;;;;;11.21;83.11;99862.88;1712399;83;21040;-68
2021/11/03 10:26:09;;;;;;;27.25;16.57;;;;;;;11.26;82.91;99864.84;1714528;83;21542;-68
2021/11/03 10:32:21;;;;;;;23.10;15.60;;;;;;;11.27;83.09;99876.69;1713833;83;21007;-68
2021/11/03 10:38:21;;;;;;;25.15;16.85;;;;;;;11.37;83.17;99873.42;1714761;83;21006;-67
2021/11/03 10:44:22;;;;;;;22.07;15.40;;;;;;;11.48;82.88;99877.13;1715429;83;20971;-68
2021/11/03 10:46:58;;;;;;;26.33;17.32;;;;;;;11.52;82.91;99883.12;1714803;83;20995;-70
2021/11/03 10:49:39;;;;;;;22.93;15.32;;;;;;;11.57;82.79;99880.56;1715123;83;20976;-69
2021/11/03 10:52:28;;;;;;;22.30;15.63;;;;;;;11.62;82.66;99886.56;1686084;83;21162;-68
2021/11/03 10:54:58;;;;;;;28.02;16.73;;;;;;;11.65;82.38;99879.91;1712656;83;21035;-68
2021/11/03 10:57:38;;;;;;;26.80;17.23;;;;;;;11.66;82.36;99881.02;1715804;83;20980;-68
2021/11/03 11:00:19;;;;;;;30.65;18.85;;;;;;;11.69;82.37;99884.56;1715049;83;21098;-71
2021/11/03 11:03:11;;;;;;;24.80;17.37;;;;;;;11.73;82.12;99887.07;1715845;83;21019;-67
2021/11/03 11:05:44;;;;;;;30.25;17.62;;;;;;;11.73;81.93;99888.92;1679543;83;21993;-66
2021/11/03 11:08:26;;;;;;;26.82;18.67;;;;;;;11.72;82.00;99884.63;1714850;83;20987;-67
2021/11/03 11:11:02;;;;;;;28.32;18.85;;;;;;;11.74;82.01;99883.85;1714532;83;20967;-69
2021/11/03 11:13:32;;;;;;;24.75;18.12;;;;;;;11.73;82.03;99891.61;1715635;83;21027;-67
2021/11/03 11:16:16;;;;;;;27.32;18.73;;;;;;;11.78;82.05;99894.92;1715293;83;21006;-69
2021/11/03 11:19:09;;;;;;;25.25;17.42;;;;;;;11.82;82.03;99896.92;1714063;83;21794;-68
2021/11/03 11:21:57;;;;;;;25.68;17.48;;;;;;;11.88;82.06;99894.62;1715862;83;21042;-67
2021/11/03 11:25:04;;;;;;;28.07;19.52;;;;;;;11.94;81.79;99892.88;1714869;83;21561;-69
2021/11/03 11:27:55;;;;;;;29.37;18.40;;;;;;;11.96;81.66;99894.80;1715507;83;21086;-70
2021/11/03 11:30:24;;;;;;;28.23;19.98;;;;;;;11.98;81.49;99894.55;1715126;83;20991;-67
2021/11/03 11:33:07;;;;;;;31.30;19.65;;;;;;;11.99;81.44;99899.69;1689815;83;21568;-70
2021/11/03 11:36:22;;;;;;;28.35;18.87;;;;;;;12.02;81.40;99905.12;1713966;83;20880;-68
2021/11/03 11:39:38;;;;;;;33.70;18.52;;;;;;;12.05;81.33;99910.01;1644019;86;20947;-68
2021/11/03 11:42:30;;;;;;;29.40;17.27;;;;;;;12.13;81.62;99912.84;1640022;86;21602;-67
2021/11/03 11:45:29;;;;;;;22.93;15.28;;;;;;;12.23;81.35;99917.06;1715824;83;20940;-67
2021/11/03 11:48:08;;;;;;;28.10;17.55;;;;;;;12.25;80.73;99919.00;1653092;85;21162;-68
2021/11/03 11:50:58;;;;;;;;;;;;;;;12.27;80.58;99910.16;1674502;85;21033;-67
2021/11/03 11:53:39;;;;;;;26.20;16.23;;;;;;;12.28;80.51;99914.48;1667303;85;20147;-69
2021/11/03 11:56:12;;;;;;;25.50;15.93;;;;;;;12.32;80.40;99921.52;1673515;85;21150;-67
2021/11/03 11:58:44;;;;;;;20.55;13.58;;;;;;;12.35;80.29;99919.70;1673238;85;21130;-66
2021/11/03 12:01:39;;;;;;;21.60;15.85;;;;;;;12.37;80.01;99922.44;1671356;85;21141;-65
2021/11/03 12:04:11;;;;;;;28.52;19.27;;;;;;;12.39;79.84;99920.86;1669718;85;21091;-66
2021/11/03 12:06:46;;;;;;;29.52;20.43;;;;;;;12.41;79.81;99922.77;1666478;85;21113;-68
2021/11/03 12:09:43;;;;;;;35.48;20.35;;;;;;;12.43;79.62;99930.88;1663792;85;21085;-67
2021/11/03 12:12:21;;;;;;;38.73;23.70;;;;;;;12.46;79.60;99937.66;1671839;85;21078;-67
2021/11/03 12:14:58;;;;;;;24.07;15.05;;;;;;;12.46;79.48;99933.63;1673467;85;21406;-66
2021/11/03 12:17:45;;;;;;;35.50;20.97;;;;;;;12.49;79.19;99936.36;1673256;85;21097;-68
2021/11/03 12:20:30;;;;;;;30.37;20.52;;;;;;;12.49;79.14;99937.70;1711835;83;20957;-68
2021/11/03 12:22:59;;;;;;;26.17;17.60;;;;;;;12.50;79.21;99937.47;1715522;83;21026;-67
2021/11/03 12:25:32;;;;;;;;;;;;;;;12.51;79.10;99944.45;1718158;83;21544;-66
2021/11/03 12:28:19;;;;;;;22.70;17.00;;;;;;;12.50;79.08;99947.38;1713773;82;21820;-69
2021/11/03 12:31:19;;;;;;;21.45;16.17;;;;;;;12.48;79.00;99951.66;1714798;83;21050;-66
2021/11/03 12:34:09;;;;;;;24.35;16.70;;;;;;;12.47;79.03;99955.94;1711037;83;21552;-67
2021/11/03 12:36:51;;;;;;;25.82;17.07;;;;;;;12.45;79.06;99957.52;1715512;83;21082;-66
2021/11/03 12:39:35;;;;;;;21.48;14.43;;;;;;;12.45;79.11;99958.86;1713660;83;21019;-67
2021/11/03 12:42:19;;;;;;;28.38;18.10;;;;;;;12.44;79.12;99967.47;1705918;83;21513;-67
2021/11/03 12:44:58;;;;;;;23.42;14.87;;;;;;;12.44;79.21;99978.22;1715191;83;21098;-68
2021/11/03 12:47:31;;;;;;;22.70;15.03;;;;;;;12.47;79.28;99978.78;1707524;83;21067;-68
2021/11/03 12:50:12;;;;;;;20.35;13.25;;;;;;;12.49;79.23;99987.45;1714929;83;21153;-69
2021/11/03 12:52:48;;;;;;;17.35;12.15;;;;;;;12.50;79.14;99989.89;1713953;83;21095;-67
2021/11/03 12:55:30;;;;;;;18.27;14.10;;;;;;;12.52;79.18;99997.72;1715685;83;21407;-67
2021/11/03 12:57:57;;;;;;;21.82;14.65;;;;;;;12.53;79.18;99998.82;1715893;83;21018;-67
2021/11/03 13:00:36;;;;;;;26.42;14.05;;;;;;;12.56;79.15;100002.91;1715693;83;21043;-68
2021/11/03 13:03:06;;;;;;;19.07;14.00;;;;;;;12.56;79.12;99997.53;1715738;83;21019;-66
2021/11/03 13:05:37;;;;;;;24.35;14.28;;;;;;;12.56;79.17;100001.03;1712841;83;21125;-66
2021/11/03 13:08:06;;;;;;;18.10;13.18;;;;;;;12.58;79.23;100006.16;1711535;83;21134;-66
2021/11/03 13:10:35;;;;;;;;;;;;;;;12.60;79.21;100011.59;1713609;83;21054;-67
2021/11/03 13:13:21;;;;;;;16.00;11.30;;;;;;;12.61;79.19;100017.24;1715832;83;20469;-70
2021/11/03 13:16:02;;;;;;;15.88;11.55;;;;;;;12.62;79.18;100021.57;1714538;83;20995;-69
2021/11/03 13:18:41;;;;;;;21.80;15.05;;;;;;;12.61;79.17;100017.24;1715286;83;20991;-70